Plum City, Wisconsin
Current Conditions -  °F | °C
As of 3:50 PM on Thursday 27 Nov 2014 (Local Time) from KRGK Reporting Station
NA  
Wind Chill: 10°   Ceiling: NA
Heat Index: 10°   Visibility: 10mi
Dew Point: -4°   Wind: 0mph
Humidity: 52%   Direction: NA
Pressure: 30.43"   Gusts: NA
Location:  44.63°N, 92.19°W
Report Text: KRGK 272150Z AUTO 00000KT 10SM M12/M20 A3043 RMK AO2
Loading
Personal Weather Stations






























Interactive Weather Map New forecast layout! Learn more

10-Day Weather Forecast

Advertisements
Track Severe Weather on mobile